EZS356Y LFSB-LFMT
Flight info
| Callsign | EZS356Y |
|---|---|
| Flight time | 1h 0m |
| Altitude | 31000 |
| Route | MOROK T14 GILIR DCT TUROM DCT MILPA DCT ONNOF DCT BALSI DCT ETIDO DCT KURIR DCT MTL DCT MOLEN DCT NG |
| Aircraft | A320/M-SDE3FGHIRWY/LB1 |
Departure
| Time | 2026-04-21 15:12 |
|---|---|
| Airport | EuroAirport Basel–Mulhouse–Freiburg (LFSB) |
Arrival
| Time | 2026-04-21 16:12 |
|---|---|
| Airport | Montpellier-Méditerranée Airport (LFMT) |
| Time | Latitude | Longitude | Altitude | Speed | Heading |
|---|---|---|---|---|---|
| 2026-04-21 14:54 | 47.59778 | 7.52952 | 886 ft | 0 kts | 315° |
| 2026-04-21 15:04 | 47.59761 | 7.52977 | 886 ft | 4 kts | 310° |
| 2026-04-21 15:05 | 47.59747 | 7.53009 | 886 ft | 4 kts | 282° |
| 2026-04-21 15:05 | 47.59747 | 7.53028 | 886 ft | 0 kts | 185° |
| 2026-04-21 15:08 | 47.59711 | 7.53023 | 893 ft | 9 kts | 187° |
| 2026-04-21 15:08 | 47.59695 | 7.53011 | 893 ft | 3 kts | 225° |
| 2026-04-21 15:09 | 47.59662 | 7.52920 | 893 ft | 12 kts | 245° |
| 2026-04-21 15:09 | 47.59627 | 7.52813 | 893 ft | 10 kts | 238° |
| 2026-04-21 15:09 | 47.59567 | 7.52813 | 894 ft | 10 kts | 154° |
| 2026-04-21 15:09 | 47.59494 | 7.52846 | 894 ft | 10 kts | 202° |
| 2026-04-21 15:10 | 47.59458 | 7.52766 | 893 ft | 9 kts | 243° |
| 2026-04-21 15:10 | 47.59437 | 7.52704 | 895 ft | 5 kts | 244° |
| 2026-04-21 15:10 | 47.59428 | 7.52648 | 894 ft | 10 kts | 283° |
| 2026-04-21 15:10 | 47.59483 | 7.52579 | 893 ft | 5 kts | 333° |
| 2026-04-21 15:11 | 47.59495 | 7.52570 | 893 ft | 18 kts | 333° |
| 2026-04-21 15:11 | 47.59849 | 7.52315 | 894 ft | 92 kts | 335° |
| 2026-04-21 15:11 | 47.60601 | 7.51801 | 889 ft | 144 kts | 335° |
| 2026-04-21 15:11 | 47.61565 | 7.51127 | 1396 ft | 153 kts | 335° |
| 2026-04-21 15:12 | 47.62521 | 7.50398 | 2134 ft | 157 kts | 338° |
| 2026-04-21 15:12 | 47.63563 | 7.49650 | 2532 ft | 175 kts | 339° |
| 2026-04-21 15:12 | 47.64754 | 7.48891 | 2833 ft | 197 kts | 341° |
| 2026-04-21 15:12 | 47.66095 | 7.48010 | 3122 ft | 226 kts | 338° |
| 2026-04-21 15:13 | 47.67466 | 7.46639 | 3662 ft | 253 kts | 311° |
| 2026-04-21 15:13 | 47.68038 | 7.44085 | 4446 ft | 277 kts | 270° |
| 2026-04-21 15:13 | 47.67414 | 7.41374 | 5304 ft | 286 kts | 232° |
| 2026-04-21 15:13 | 47.65870 | 7.39528 | 6226 ft | 286 kts | 204° |
| 2026-04-21 15:14 | 47.64056 | 7.38355 | 7281 ft | 284 kts | 200° |
| 2026-04-21 15:14 | 47.62221 | 7.37281 | 8304 ft | 283 kts | 201° |
| 2026-04-21 15:14 | 47.60390 | 7.36229 | 9356 ft | 281 kts | 202° |
| 2026-04-21 15:14 | 47.58571 | 7.35199 | 10337 ft | 281 kts | 202° |
| 2026-04-21 15:15 | 47.56688 | 7.34047 | 10664 ft | 304 kts | 208° |
| 2026-04-21 15:15 | 47.54768 | 7.32478 | 10957 ft | 325 kts | 213° |
| 2026-04-21 15:15 | 47.52991 | 7.30353 | 11472 ft | 333 kts | 230° |
| 2026-04-21 15:15 | 47.51654 | 7.27545 | 12137 ft | 337 kts | 244° |
| 2026-04-21 15:16 | 47.50711 | 7.24358 | 12876 ft | 340 kts | 252° |
| 2026-04-21 15:16 | 47.50018 | 7.21005 | 13639 ft | 342 kts | 256° |
| 2026-04-21 15:16 | 47.49411 | 7.17585 | 14345 ft | 346 kts | 258° |
| 2026-04-21 15:16 | 47.48837 | 7.14112 | 15031 ft | 349 kts | 258° |
| 2026-04-21 15:17 | 47.48288 | 7.10667 | 15719 ft | 351 kts | 259° |
| 2026-04-21 15:17 | 47.47731 | 7.07132 | 16419 ft | 353 kts | 259° |
| 2026-04-21 15:17 | 47.47168 | 7.03582 | 17134 ft | 355 kts | 259° |
| 2026-04-21 15:17 | 47.46596 | 7.00020 | 17823 ft | 358 kts | 259° |
| 2026-04-21 15:18 | 47.45972 | 6.96447 | 18492 ft | 360 kts | 258° |
| 2026-04-21 15:18 | 47.45278 | 6.92880 | 19087 ft | 362 kts | 257° |
| 2026-04-21 15:18 | 47.44545 | 6.89315 | 19709 ft | 363 kts | 257° |
| 2026-04-21 15:18 | 47.43799 | 6.85752 | 20332 ft | 364 kts | 258° |
| 2026-04-21 15:19 | 47.43049 | 6.82170 | 20944 ft | 365 kts | 258° |
| 2026-04-21 15:19 | 47.42305 | 6.78583 | 21547 ft | 365 kts | 259° |
| 2026-04-21 15:19 | 47.41569 | 6.74991 | 22144 ft | 366 kts | 259° |
| 2026-04-21 15:19 | 47.40836 | 6.71388 | 22725 ft | 367 kts | 260° |
| 2026-04-21 15:20 | 47.39918 | 6.67841 | 23260 ft | 376 kts | 251° |
| 2026-04-21 15:20 | 47.38497 | 6.64517 | 23771 ft | 390 kts | 242° |
| 2026-04-21 15:20 | 47.36587 | 6.61624 | 24190 ft | 407 kts | 231° |
| 2026-04-21 15:20 | 47.34415 | 6.58920 | 24611 ft | 410 kts | 231° |
| 2026-04-21 15:21 | 47.32228 | 6.56203 | 24982 ft | 412 kts | 231° |
| 2026-04-21 15:21 | 47.30037 | 6.53466 | 25396 ft | 413 kts | 231° |
| 2026-04-21 15:21 | 47.27841 | 6.50713 | 25788 ft | 415 kts | 231° |
| 2026-04-21 15:21 | 47.25636 | 6.47950 | 26178 ft | 418 kts | 231° |
| 2026-04-21 15:22 | 47.23415 | 6.45174 | 26580 ft | 420 kts | 231° |
| 2026-04-21 15:22 | 47.21184 | 6.42389 | 26975 ft | 422 kts | 231° |
| 2026-04-21 15:22 | 47.18938 | 6.39589 | 27302 ft | 424 kts | 230° |
| 2026-04-21 15:22 | 47.16681 | 6.36774 | 27674 ft | 426 kts | 230° |
| 2026-04-21 15:23 | 47.14411 | 6.33944 | 28047 ft | 429 kts | 230° |
| 2026-04-21 15:23 | 47.12135 | 6.31108 | 28408 ft | 431 kts | 230° |
| 2026-04-21 15:23 | 47.09844 | 6.28261 | 28751 ft | 433 kts | 230° |
| 2026-04-21 15:23 | 47.07541 | 6.25407 | 29094 ft | 435 kts | 230° |
| 2026-04-21 15:24 | 47.05222 | 6.22537 | 29423 ft | 437 kts | 230° |
| 2026-04-21 15:24 | 47.02896 | 6.19658 | 29756 ft | 438 kts | 230° |
| 2026-04-21 15:24 | 47.00555 | 6.16768 | 30051 ft | 440 kts | 229° |
| 2026-04-21 15:24 | 46.98202 | 6.13866 | 30298 ft | 442 kts | 229° |
| 2026-04-21 15:25 | 46.95849 | 6.10967 | 30622 ft | 442 kts | 229° |
| 2026-04-21 15:25 | 46.93494 | 6.08071 | 30941 ft | 442 kts | 229° |
| 2026-04-21 15:25 | 46.88871 | 6.02407 | 31031 ft | 431 kts | 229° |
| 2026-04-21 15:26 | 46.83767 | 5.97603 | 31028 ft | 449 kts | 211° |
| 2026-04-21 15:26 | 46.80755 | 5.96201 | 31004 ft | 461 kts | 200° |
| 2026-04-21 15:26 | 46.77550 | 5.95541 | 31029 ft | 468 kts | 194° |
| 2026-04-21 15:27 | 46.71076 | 5.94525 | 31023 ft | 468 kts | 194° |
| 2026-04-21 15:27 | 46.64606 | 5.93479 | 31029 ft | 467 kts | 194° |
| 2026-04-21 15:28 | 46.58142 | 5.92426 | 31023 ft | 467 kts | 194° |
| 2026-04-21 15:28 | 46.51682 | 5.91392 | 31018 ft | 467 kts | 194° |
| 2026-04-21 15:29 | 46.45226 | 5.90361 | 31016 ft | 467 kts | 194° |
| 2026-04-21 15:29 | 46.38770 | 5.89331 | 30981 ft | 466 kts | 193° |
| 2026-04-21 15:30 | 46.32321 | 5.88303 | 30988 ft | 466 kts | 193° |
| 2026-04-21 15:30 | 46.25760 | 5.88408 | 30987 ft | 475 kts | 183° |
| 2026-04-21 15:31 | 46.19158 | 5.89075 | 30973 ft | 475 kts | 182° |
| 2026-04-21 15:31 | 46.12611 | 5.89729 | 30978 ft | 474 kts | 183° |
| 2026-04-21 15:32 | 46.06021 | 5.90367 | 30969 ft | 475 kts | 182° |
| 2026-04-21 15:32 | 45.99421 | 5.91001 | 30950 ft | 475 kts | 182° |
| 2026-04-21 15:33 | 45.92836 | 5.91649 | 30955 ft | 474 kts | 182° |
| 2026-04-21 15:33 | 45.86257 | 5.92304 | 30979 ft | 474 kts | 182° |
| 2026-04-21 15:34 | 45.79673 | 5.92960 | 30945 ft | 474 kts | 182° |
| 2026-04-21 15:34 | 45.73086 | 5.93609 | 30954 ft | 474 kts | 182° |
| 2026-04-21 15:35 | 45.66503 | 5.94254 | 30968 ft | 474 kts | 182° |
| 2026-04-21 15:35 | 45.59925 | 5.94895 | 30953 ft | 473 kts | 182° |
| 2026-04-21 15:36 | 45.53385 | 5.95174 | 30962 ft | 463 kts | 193° |
| 2026-04-21 15:36 | 45.47319 | 5.92880 | 30957 ft | 443 kts | 212° |
| 2026-04-21 15:37 | 45.42288 | 5.88182 | 30933 ft | 425 kts | 230° |
| 2026-04-21 15:37 | 45.38133 | 5.82270 | 30939 ft | 422 kts | 232° |
| 2026-04-21 15:38 | 45.34004 | 5.76365 | 30943 ft | 425 kts | 232° |
| 2026-04-21 15:38 | 45.29821 | 5.70412 | 30948 ft | 425 kts | 232° |
| 2026-04-21 15:39 | 45.25636 | 5.64465 | 30959 ft | 426 kts | 232° |
| 2026-04-21 15:39 | 45.21450 | 5.58510 | 30955 ft | 426 kts | 232° |
| 2026-04-21 15:40 | 45.17967 | 5.53560 | 30968 ft | 427 kts | 232° |
| 2026-04-21 15:40 | 45.13759 | 5.47615 | 30974 ft | 427 kts | 231° |
| 2026-04-21 15:41 | 45.11652 | 5.44645 | 30802 ft | 429 kts | 231° |
| 2026-04-21 15:41 | 45.09538 | 5.41660 | 30390 ft | 429 kts | 231° |
| 2026-04-21 15:41 | 45.07426 | 5.38682 | 29989 ft | 429 kts | 231° |
| 2026-04-21 15:41 | 45.05306 | 5.35703 | 29487 ft | 430 kts | 231° |
| 2026-04-21 15:42 | 45.03178 | 5.32716 | 29034 ft | 432 kts | 231° |
| 2026-04-21 15:42 | 45.01047 | 5.29730 | 28587 ft | 431 kts | 231° |
| 2026-04-21 15:42 | 44.98924 | 5.26758 | 28138 ft | 428 kts | 231° |
| 2026-04-21 15:42 | 44.96816 | 5.23810 | 27705 ft | 425 kts | 231° |
| 2026-04-21 15:43 | 44.94717 | 5.20875 | 27287 ft | 423 kts | 231° |
| 2026-04-21 15:43 | 44.92630 | 5.17961 | 26862 ft | 421 kts | 231° |
| 2026-04-21 15:43 | 44.90557 | 5.15067 | 26443 ft | 418 kts | 231° |
| 2026-04-21 15:43 | 44.88498 | 5.12192 | 26049 ft | 415 kts | 230° |
| 2026-04-21 15:44 | 44.86446 | 5.09329 | 25624 ft | 413 kts | 230° |
| 2026-04-21 15:44 | 44.84410 | 5.06491 | 25234 ft | 411 kts | 230° |
| 2026-04-21 15:44 | 44.82410 | 5.03709 | 24852 ft | 409 kts | 230° |
| 2026-04-21 15:44 | 44.80392 | 5.00905 | 24468 ft | 406 kts | 230° |
| 2026-04-21 15:45 | 44.78383 | 4.98118 | 24092 ft | 404 kts | 230° |
| 2026-04-21 15:45 | 44.76384 | 4.95349 | 23719 ft | 402 kts | 230° |
| 2026-04-21 15:45 | 44.74389 | 4.92602 | 23302 ft | 402 kts | 228° |
| 2026-04-21 15:45 | 44.72210 | 4.90117 | 22860 ft | 405 kts | 220° |
| 2026-04-21 15:46 | 44.69782 | 4.88073 | 22431 ft | 408 kts | 212° |
| 2026-04-21 15:46 | 44.67240 | 4.86293 | 22004 ft | 407 kts | 212° |
| 2026-04-21 15:46 | 44.64715 | 4.84520 | 21587 ft | 404 kts | 212° |
| 2026-04-21 15:46 | 44.62211 | 4.82755 | 21161 ft | 402 kts | 212° |
| 2026-04-21 15:47 | 44.59728 | 4.80999 | 20739 ft | 399 kts | 212° |
| 2026-04-21 15:47 | 44.57253 | 4.79248 | 20339 ft | 397 kts | 212° |
| 2026-04-21 15:47 | 44.54754 | 4.77593 | 19941 ft | 398 kts | 207° |
| 2026-04-21 15:47 | 44.52175 | 4.76184 | 19555 ft | 397 kts | 206° |
| 2026-04-21 15:48 | 44.49605 | 4.74793 | 19146 ft | 394 kts | 206° |
| 2026-04-21 15:48 | 44.47052 | 4.73423 | 18763 ft | 392 kts | 206° |
| 2026-04-21 15:48 | 44.44502 | 4.72060 | 18393 ft | 390 kts | 206° |
| 2026-04-21 15:48 | 44.41971 | 4.70708 | 17985 ft | 388 kts | 206° |
| 2026-04-21 15:49 | 44.39454 | 4.69362 | 17562 ft | 386 kts | 206° |
| 2026-04-21 15:49 | 44.36951 | 4.68022 | 17140 ft | 384 kts | 206° |
| 2026-04-21 15:49 | 44.34457 | 4.66687 | 16718 ft | 382 kts | 206° |
| 2026-04-21 15:49 | 44.31981 | 4.65360 | 16301 ft | 380 kts | 205° |
| 2026-04-21 15:50 | 44.29520 | 4.64041 | 15892 ft | 378 kts | 205° |
| 2026-04-21 15:50 | 44.27073 | 4.62733 | 15488 ft | 376 kts | 205° |
| 2026-04-21 15:50 | 44.24665 | 4.61456 | 15098 ft | 374 kts | 205° |
| 2026-04-21 15:50 | 44.22237 | 4.60170 | 14710 ft | 373 kts | 206° |
| 2026-04-21 15:51 | 44.19821 | 4.58886 | 14326 ft | 370 kts | 206° |
| 2026-04-21 15:51 | 44.17420 | 4.57606 | 13995 ft | 369 kts | 206° |
| 2026-04-21 15:51 | 44.15020 | 4.56327 | 13666 ft | 368 kts | 206° |
| 2026-04-21 15:51 | 44.12643 | 4.55060 | 13276 ft | 365 kts | 206° |
| 2026-04-21 15:52 | 44.10278 | 4.53803 | 12911 ft | 362 kts | 205° |
| 2026-04-21 15:52 | 44.07928 | 4.52558 | 12548 ft | 360 kts | 205° |
| 2026-04-21 15:52 | 44.05597 | 4.51326 | 12220 ft | 358 kts | 205° |
| 2026-04-21 15:52 | 44.03273 | 4.50091 | 11992 ft | 357 kts | 205° |
| 2026-04-21 15:53 | 44.00963 | 4.48849 | 11764 ft | 355 kts | 205° |
| 2026-04-21 15:53 | 43.98667 | 4.47607 | 11541 ft | 354 kts | 206° |
| 2026-04-21 15:53 | 43.96374 | 4.46361 | 11316 ft | 353 kts | 206° |
| 2026-04-21 15:53 | 43.94096 | 4.45125 | 11079 ft | 352 kts | 205° |
| 2026-04-21 15:54 | 43.91819 | 4.43900 | 10859 ft | 350 kts | 205° |
| 2026-04-21 15:54 | 43.89554 | 4.42688 | 10642 ft | 348 kts | 205° |
| 2026-04-21 15:54 | 43.87340 | 4.41370 | 10432 ft | 344 kts | 212° |
| 2026-04-21 15:54 | 43.85345 | 4.39581 | 10205 ft | 339 kts | 222° |
| 2026-04-21 15:55 | 43.83635 | 4.37376 | 9997 ft | 334 kts | 231° |
| 2026-04-21 15:55 | 43.82107 | 4.34976 | 9782 ft | 327 kts | 232° |
| 2026-04-21 15:55 | 43.80618 | 4.32663 | 9537 ft | 316 kts | 232° |
| 2026-04-21 15:55 | 43.79170 | 4.30429 | 9313 ft | 307 kts | 231° |
| 2026-04-21 15:56 | 43.77762 | 4.28258 | 9078 ft | 299 kts | 231° |
| 2026-04-21 15:56 | 43.76412 | 4.26173 | 8850 ft | 290 kts | 232° |
| 2026-04-21 15:56 | 43.75080 | 4.24114 | 8609 ft | 283 kts | 231° |
| 2026-04-21 15:56 | 43.73779 | 4.22098 | 8385 ft | 280 kts | 231° |
| 2026-04-21 15:57 | 43.72483 | 4.20086 | 8158 ft | 279 kts | 231° |
| 2026-04-21 15:57 | 43.71193 | 4.18083 | 7926 ft | 279 kts | 231° |
| 2026-04-21 15:57 | 43.69906 | 4.16085 | 7705 ft | 278 kts | 231° |
| 2026-04-21 15:57 | 43.68622 | 4.14092 | 7508 ft | 277 kts | 231° |
| 2026-04-21 15:58 | 43.67343 | 4.12098 | 7312 ft | 277 kts | 232° |
| 2026-04-21 15:58 | 43.66068 | 4.10106 | 7125 ft | 276 kts | 231° |
| 2026-04-21 15:58 | 43.64797 | 4.08119 | 6910 ft | 276 kts | 231° |
| 2026-04-21 15:58 | 43.63544 | 4.06160 | 6666 ft | 275 kts | 231° |
| 2026-04-21 15:59 | 43.62284 | 4.04186 | 6441 ft | 274 kts | 231° |
| 2026-04-21 15:59 | 43.61023 | 4.02209 | 6197 ft | 273 kts | 231° |
| 2026-04-21 15:59 | 43.59770 | 4.00238 | 5941 ft | 272 kts | 231° |
| 2026-04-21 15:59 | 43.58546 | 3.98294 | 5666 ft | 264 kts | 231° |
| 2026-04-21 16:00 | 43.57361 | 3.96400 | 5426 ft | 257 kts | 231° |
| 2026-04-21 16:00 | 43.56208 | 3.94548 | 5168 ft | 251 kts | 231° |
| 2026-04-21 16:00 | 43.55086 | 3.92727 | 4925 ft | 247 kts | 232° |
| 2026-04-21 16:00 | 43.53984 | 3.90923 | 4677 ft | 245 kts | 232° |
| 2026-04-21 16:01 | 43.52889 | 3.89126 | 4428 ft | 245 kts | 231° |
| 2026-04-21 16:01 | 43.51805 | 3.87352 | 4175 ft | 239 kts | 231° |
| 2026-04-21 16:01 | 43.50746 | 3.85624 | 3951 ft | 233 kts | 231° |
| 2026-04-21 16:01 | 43.49607 | 3.84094 | 3803 ft | 227 kts | 211° |
| 2026-04-21 16:02 | 43.48126 | 3.83558 | 3673 ft | 227 kts | 177° |
| 2026-04-21 16:02 | 43.46605 | 3.84096 | 3517 ft | 227 kts | 149° |
| 2026-04-21 16:02 | 43.45488 | 3.85598 | 3420 ft | 226 kts | 123° |
| 2026-04-21 16:02 | 43.44740 | 3.87499 | 3348 ft | 224 kts | 112° |
| 2026-04-21 16:03 | 43.44269 | 3.89489 | 3242 ft | 215 kts | 103° |
| 2026-04-21 16:03 | 43.43929 | 3.91445 | 3175 ft | 206 kts | 102° |
| 2026-04-21 16:03 | 43.43616 | 3.93353 | 3079 ft | 203 kts | 102° |
| 2026-04-21 16:03 | 43.43310 | 3.95246 | 2978 ft | 202 kts | 101° |
| 2026-04-21 16:04 | 43.43007 | 3.97125 | 2877 ft | 200 kts | 102° |
| 2026-04-21 16:04 | 43.42704 | 3.98994 | 2783 ft | 200 kts | 101° |
| 2026-04-21 16:04 | 43.42401 | 4.00852 | 2697 ft | 198 kts | 102° |
| 2026-04-21 16:04 | 43.42101 | 4.02708 | 2663 ft | 198 kts | 102° |
| 2026-04-21 16:05 | 43.41803 | 4.04565 | 2639 ft | 199 kts | 102° |
| 2026-04-21 16:05 | 43.41508 | 4.06421 | 2616 ft | 198 kts | 102° |
| 2026-04-21 16:05 | 43.41213 | 4.08278 | 2540 ft | 199 kts | 101° |
| 2026-04-21 16:05 | 43.40919 | 4.10108 | 2409 ft | 193 kts | 102° |
| 2026-04-21 16:06 | 43.40636 | 4.11885 | 2288 ft | 188 kts | 102° |
| 2026-04-21 16:06 | 43.40400 | 4.13642 | 2162 ft | 186 kts | 89° |
| 2026-04-21 16:06 | 43.40812 | 4.15272 | 2100 ft | 184 kts | 51° |
| 2026-04-21 16:06 | 43.41756 | 4.16473 | 2024 ft | 186 kts | 40° |
| 2026-04-21 16:07 | 43.42784 | 4.17542 | 2012 ft | 186 kts | 35° |
| 2026-04-21 16:07 | 43.43989 | 4.18174 | 2006 ft | 188 kts | 9° |
| 2026-04-21 16:07 | 43.45273 | 4.18318 | 2011 ft | 188 kts | 1° |
| 2026-04-21 16:07 | 43.46559 | 4.18000 | 2007 ft | 190 kts | 340° |
| 2026-04-21 16:08 | 43.48477 | 4.15631 | 2006 ft | 185 kts | 306° |
| 2026-04-21 16:08 | 43.49211 | 4.14184 | 2000 ft | 183 kts | 306° |
| 2026-04-21 16:08 | 43.49935 | 4.12755 | 2011 ft | 181 kts | 305° |
| 2026-04-21 16:09 | 43.50656 | 4.11331 | 2013 ft | 181 kts | 305° |
| 2026-04-21 16:09 | 43.51381 | 4.09898 | 1934 ft | 183 kts | 306° |
| 2026-04-21 16:09 | 43.52104 | 4.08470 | 1755 ft | 178 kts | 305° |
| 2026-04-21 16:09 | 43.52799 | 4.07095 | 1529 ft | 171 kts | 304° |
| 2026-04-21 16:10 | 43.53457 | 4.05794 | 1312 ft | 161 kts | 304° |
| 2026-04-21 16:10 | 43.54070 | 4.04581 | 1112 ft | 149 kts | 304° |
| 2026-04-21 16:10 | 43.54648 | 4.03435 | 918 ft | 143 kts | 303° |
| 2026-04-21 16:10 | 43.55211 | 4.02320 | 737 ft | 141 kts | 303° |
| 2026-04-21 16:11 | 43.55763 | 4.01212 | 542 ft | 140 kts | 302° |
| 2026-04-21 16:11 | 43.56323 | 4.00132 | 352 ft | 138 kts | 302° |
| 2026-04-21 16:11 | 43.56874 | 3.99060 | 201 ft | 137 kts | 299° |
| 2026-04-21 16:11 | 43.57406 | 3.97971 | 31 ft | 136 kts | 300° |
| 2026-04-21 16:12 | 43.57740 | 3.97298 | 19 ft | 119 kts | 304° |
| 2026-04-21 16:12 | 43.58212 | 3.96365 | 19 ft | 57 kts | 306° |
| 2026-04-21 16:12 | 43.58320 | 3.96130 | 14 ft | 17 kts | 272° |
| 2026-04-21 16:12 | 43.58268 | 3.95974 | 12 ft | 19 kts | 243° |
| 2026-04-21 16:13 | 43.58211 | 3.95815 | 15 ft | 19 kts | 244° |
| 2026-04-21 16:13 | 43.58125 | 3.95774 | 16 ft | 14 kts | 148° |
| 2026-04-21 16:13 | 43.58064 | 3.95884 | 15 ft | 14 kts | 125° |
| 2026-04-21 16:13 | 43.58041 | 3.95972 | 15 ft | 0 kts | 112° |
| 2026-04-21 16:14 | 43.58034 | 3.95985 | 17 ft | 4 kts | 138° |
| 2026-04-21 16:14 | 43.58010 | 3.95969 | 15 ft | 8 kts | 207° |
| 2026-04-21 16:14 | 43.57984 | 3.95950 | 15 ft | 0 kts | 207° |
| 2026-04-21 16:15 | 43.57983 | 3.95950 | 15 ft | 0 kts | 207° |